createdAt,value
2019-05-21T00:01:11.901Z,81.95
2019-05-21T00:03:38.235Z,82.17
2019-05-21T00:06:04.603Z,82.76
2019-05-21T00:08:30.916Z,82.92
2019-05-21T00:10:57.249Z,82.90
2019-05-21T00:13:23.890Z,82.53
2019-05-21T00:15:50.526Z,82.45
2019-05-21T00:18:16.858Z,82.17
2019-05-21T00:20:43.212Z,82.41
2019-05-21T00:23:09.827Z,82.14
2019-05-21T00:25:36.573Z,82.26
2019-05-21T00:28:34.939Z,82.33
2019-05-21T00:31:57.564Z,82.44
2019-05-21T00:35:22.243Z,83.19
2019-05-21T00:38:45.149Z,83.46
2019-05-21T00:41:58.966Z,83.72
2019-05-21T00:44:26.043Z,84.10
2019-05-21T00:46:52.400Z,84.44
2019-05-21T00:49:19.547Z,84.19
2019-05-21T00:51:45.968Z,83.87
2019-05-21T00:54:12.364Z,83.89
2019-05-21T00:56:39.904Z,83.84
2019-05-21T00:59:06.240Z,83.83
2019-05-21T01:01:32.944Z,83.83
2019-05-21T01:03:59.270Z,84.02
2019-05-21T01:06:25.645Z,84.08
2019-05-21T01:08:53.193Z,83.97
2019-05-21T01:11:19.531Z,84.22
2019-05-21T01:13:45.997Z,84.11
2019-05-21T01:16:12.331Z,84.18
2019-05-21T01:18:38.783Z,84.12
2019-05-21T01:21:05.114Z,84.11
2019-05-21T01:23:31.546Z,84.00
2019-05-21T01:25:57.893Z,83.99
2019-05-21T01:28:24.258Z,84.11
2019-05-21T01:30:50.619Z,84.14
2019-05-21T01:33:17.024Z,83.87
2019-05-21T01:35:43.420Z,83.54
2019-05-21T01:38:11.026Z,83.65
2019-05-21T01:40:39.034Z,83.37
2019-05-21T01:43:05.393Z,83.15
2019-05-21T01:45:31.766Z,83.13
2019-05-21T01:47:58.122Z,83.71
2019-05-21T01:50:24.539Z,83.98
2019-05-21T01:52:50.858Z,84.11
2019-05-21T01:55:17.283Z,83.83
2019-05-21T01:57:43.693Z,83.74
2019-05-21T02:00:10.256Z,83.89
2019-05-21T02:02:36.717Z,84.26
2019-05-21T02:05:04.968Z,83.95
2019-05-21T02:07:31.349Z,83.83
2019-05-21T02:09:57.966Z,83.57
2019-05-21T02:12:26.368Z,82.23
2019-05-21T02:14:53.806Z,81.61
2019-05-21T02:17:20.387Z,81.70
2019-05-21T02:19:46.710Z,82.58
2019-05-21T02:22:13.058Z,82.88
2019-05-21T02:24:39.423Z,83.50
2019-05-21T02:27:05.878Z,83.67
2019-05-21T02:29:32.341Z,83.50
2019-05-21T02:31:58.682Z,83.33
2019-05-21T02:34:25.075Z,83.19
2019-05-21T02:36:51.379Z,83.56
2019-05-21T02:39:17.732Z,83.68
2019-05-21T02:41:44.068Z,83.91
2019-05-21T02:44:10.426Z,83.66
2019-05-21T02:46:36.732Z,83.57
2019-05-21T02:49:04.414Z,83.31
2019-05-21T02:51:30.755Z,83.93
2019-05-21T02:53:57.113Z,84.25
2019-05-21T02:56:23.473Z,84.21
2019-05-21T02:58:49.827Z,83.99
2019-05-21T03:01:20.857Z,83.39
2019-05-21T03:03:47.167Z,83.50
2019-05-21T03:06:14.949Z,83.87
2019-05-21T03:08:41.771Z,83.60
2019-05-21T03:11:08.201Z,83.36
2019-05-21T03:13:35.024Z,83.66
2019-05-21T03:16:01.366Z,83.39
2019-05-21T03:18:27.708Z,83.59
2019-05-21T03:20:54.042Z,83.66
2019-05-21T03:23:20.396Z,83.51
2019-05-21T03:25:46.764Z,83.44
2019-05-21T03:28:13.072Z,84.06
2019-05-21T03:30:40.458Z,83.77
2019-05-21T03:33:06.803Z,83.62
2019-05-21T03:35:34.321Z,83.61
2019-05-21T03:38:00.676Z,82.99
2019-05-21T03:40:27.098Z,82.84
2019-05-21T03:42:54.870Z,82.57
2019-05-21T03:45:22.277Z,82.19
2019-05-21T03:47:48.732Z,82.02
2019-05-21T03:50:15.198Z,82.12
2019-05-21T03:52:41.551Z,82.00
2019-05-21T03:55:07.981Z,81.73
2019-05-21T03:57:34.853Z,81.44
2019-05-21T04:00:03.667Z,81.11
2019-05-21T04:02:30.026Z,80.69
2019-05-21T04:04:56.377Z,80.36
2019-05-21T04:07:22.726Z,80.05
2019-05-21T04:09:49.073Z,80.02
2019-05-21T04:12:15.428Z,80.00
2019-05-21T04:14:43.925Z,80.09
2019-05-21T04:17:13.318Z,79.86
2019-05-21T04:19:41.407Z,79.78
2019-05-21T04:22:15.830Z,79.51
2019-05-21T04:24:43.266Z,79.53
2019-05-21T04:27:09.648Z,79.03
2019-05-21T04:29:35.911Z,78.56
2019-05-21T04:32:02.270Z,77.90
2019-05-21T04:34:28.628Z,77.51
2019-05-21T04:37:09.323Z,77.56
2019-05-21T04:39:23.302Z,77.28
2019-05-21T04:41:49.657Z,77.70
2019-05-21T04:44:16.029Z,77.85
2019-05-21T04:46:42.741Z,77.44
2019-05-21T04:49:09.083Z,76.50
2019-05-21T04:51:35.808Z,76.03
2019-05-21T04:54:03.322Z,75.72
2019-05-21T04:56:29.747Z,75.61
2019-05-21T04:58:56.074Z,74.41
2019-05-21T05:01:24.132Z,73.84
2019-05-21T05:03:50.727Z,72.86
2019-05-21T05:06:17.043Z,73.16
2019-05-21T05:08:43.463Z,72.97
2019-05-21T05:11:09.814Z,72.71
2019-05-21T05:13:36.181Z,73.00
2019-05-21T05:16:04.303Z,71.89
2019-05-21T05:18:30.828Z,71.03
2019-05-21T05:20:57.139Z,71.36
2019-05-21T05:23:23.530Z,70.92
2019-05-21T05:25:49.882Z,70.46
2019-05-21T05:28:16.515Z,70.56
2019-05-21T05:30:42.866Z,70.71
2019-05-21T05:33:09.199Z,69.89
2019-05-21T05:35:35.916Z,69.86
2019-05-21T05:38:02.358Z,70.56
2019-05-21T05:40:28.999Z,70.11
2019-05-21T05:42:55.317Z,69.41
2019-05-21T05:45:22.198Z,68.81
2019-05-21T05:47:48.571Z,68.30
2019-05-21T05:50:20.391Z,69.14
2019-05-21T05:52:47.001Z,68.95
2019-05-21T05:55:13.800Z,67.66
2019-05-21T05:57:40.141Z,67.04
2019-05-21T06:00:09.572Z,66.24
2019-05-21T06:02:35.901Z,66.25
2019-05-21T06:05:07.048Z,66.12
2019-05-21T06:07:33.389Z,66.41
2019-05-21T06:09:59.707Z,66.08
2019-05-21T06:12:26.047Z,66.17
2019-05-21T06:14:52.462Z,66.26
2019-05-21T06:17:18.811Z,66.02
2019-05-21T06:19:45.153Z,66.33
2019-05-21T06:22:11.788Z,64.88
2019-05-21T06:24:38.216Z,64.05
2019-05-21T06:27:04.572Z,63.75
2019-05-21T06:29:30.942Z,62.61
2019-05-21T06:31:57.250Z,62.59
2019-05-21T06:34:23.606Z,62.35
2019-05-21T06:36:49.943Z,61.18
2019-05-21T06:39:16.290Z,60.33
2019-05-21T06:41:42.608Z,59.94
2019-05-21T06:44:08.948Z,59.16
2019-05-21T06:46:36.186Z,57.49
2019-05-21T06:49:02.807Z,57.71
2019-05-21T06:51:29.164Z,58.73
2019-05-21T06:53:55.486Z,59.12
2019-05-21T06:56:21.903Z,60.41
2019-05-21T06:58:48.316Z,59.80
2019-05-21T07:01:14.668Z,59.16
2019-05-21T07:03:41.020Z,58.16
2019-05-21T07:06:07.377Z,57.69
2019-05-21T07:08:35.181Z,56.46
2019-05-21T07:11:01.927Z,55.35
2019-05-21T07:13:31.021Z,54.74
2019-05-21T07:15:56.670Z,53.49
2019-05-21T07:18:23.025Z,53.50
2019-05-21T07:20:49.380Z,53.10
2019-05-21T07:23:15.693Z,53.85
2019-05-21T07:25:42.050Z,53.27
2019-05-21T07:28:08.402Z,53.31
2019-05-21T07:30:34.727Z,53.90
2019-05-21T07:33:01.108Z,53.58
2019-05-21T07:35:27.532Z,52.29
2019-05-21T07:37:53.857Z,52.44
2019-05-21T07:40:20.534Z,51.50
2019-05-21T07:42:46.875Z,51.21
2019-05-21T07:45:13.629Z,52.52
2019-05-21T07:47:39.970Z,52.62
2019-05-21T07:50:06.588Z,53.56
2019-05-21T07:52:32.971Z,51.86
2019-05-21T07:54:59.394Z,50.14
2019-05-21T07:57:25.739Z,50.67
2019-05-21T07:59:52.081Z,50.50
2019-05-21T08:02:19.984Z,49.49
2019-05-21T08:04:46.377Z,51.40
2019-05-21T08:07:12.703Z,49.22
2019-05-21T08:09:39.094Z,49.62
2019-05-21T08:12:27.518Z,50.21
2019-05-21T08:14:34.119Z,48.76
2019-05-21T08:17:00.444Z,48.63
2019-05-21T08:19:26.804Z,48.63
2019-05-21T08:21:53.200Z,48.53
2019-05-21T08:24:19.593Z,48.29
2019-05-21T08:26:46.239Z,47.23
2019-05-21T08:29:12.848Z,47.18
2019-05-21T08:31:39.322Z,47.04
2019-05-21T08:34:05.684Z,47.50
2019-05-21T08:36:32.069Z,46.88
2019-05-21T08:38:58.422Z,45.40
2019-05-21T08:41:25.668Z,46.26
2019-05-21T08:43:51.960Z,45.03
2019-05-21T08:46:18.316Z,45.49
2019-05-21T08:48:44.699Z,46.15
2019-05-21T08:51:11.180Z,45.96
2019-05-21T08:53:37.525Z,44.93
2019-05-21T08:56:04.347Z,44.46
2019-05-21T08:58:30.746Z,43.35
2019-05-21T09:00:57.228Z,42.48
2019-05-21T09:03:23.573Z,40.82
2019-05-21T09:05:49.900Z,40.91
2019-05-21T09:08:16.515Z,39.87
2019-05-21T09:10:42.864Z,40.04
2019-05-21T09:13:09.262Z,38.59
2019-05-21T09:15:35.586Z,37.95
2019-05-21T09:18:02.292Z,39.44
2019-05-21T09:20:29.731Z,40.21
2019-05-21T09:22:56.081Z,38.88
2019-05-21T09:25:22.886Z,39.84
2019-05-21T09:27:49.266Z,39.69
2019-05-21T09:30:16.739Z,39.64
2019-05-21T09:32:43.049Z,40.29
2019-05-21T09:35:09.794Z,40.59
2019-05-21T09:37:36.722Z,40.24
2019-05-21T09:40:08.662Z,39.51
2019-05-21T09:42:35.087Z,39.08
2019-05-21T09:45:01.830Z,39.24
2019-05-21T09:47:29.198Z,39.13
2019-05-21T09:49:55.546Z,39.74
2019-05-21T09:52:21.869Z,39.25
2019-05-21T09:54:48.215Z,39.29
2019-05-21T09:57:16.464Z,38.88
2019-05-21T09:59:50.711Z,38.59
2019-05-21T10:02:19.079Z,38.26
2019-05-21T10:04:45.434Z,37.92
2019-05-21T10:07:11.758Z,38.40
2019-05-21T10:09:38.097Z,37.73
2019-05-21T10:12:04.647Z,38.18
2019-05-21T10:14:34.128Z,37.99
2019-05-21T10:16:59.617Z,38.24
2019-05-21T10:19:26.035Z,37.59
2019-05-21T10:21:52.367Z,38.84
2019-05-21T10:24:18.763Z,38.42
2019-05-21T10:26:45.226Z,38.65
2019-05-21T10:29:11.895Z,36.35
2019-05-21T10:31:38.554Z,36.08
2019-05-21T10:34:04.927Z,37.29
2019-05-21T10:36:31.350Z,36.54
2019-05-21T10:38:57.901Z,35.20
2019-05-21T10:41:24.297Z,35.15
2019-05-21T10:43:52.621Z,35.49
2019-05-21T10:46:18.924Z,34.49
2019-05-21T10:48:45.309Z,34.53
2019-05-21T10:51:11.769Z,33.93
2019-05-21T10:53:38.380Z,34.24
2019-05-21T10:56:05.809Z,33.08
2019-05-21T10:58:32.474Z,33.23
2019-05-21T11:01:00.821Z,34.80
2019-05-21T11:03:42.429Z,33.02
2019-05-21T11:06:10.712Z,32.57
2019-05-21T11:08:37.299Z,31.95
2019-05-21T11:11:04.066Z,32.01
2019-05-21T11:13:30.530Z,33.15
2019-05-21T11:15:56.988Z,33.45
2019-05-21T11:18:23.391Z,31.53
2019-05-21T11:20:49.729Z,32.18
2019-05-21T11:23:16.379Z,30.85
2019-05-21T11:25:42.740Z,30.81
2019-05-21T11:28:10.379Z,30.00
2019-05-21T11:30:36.735Z,31.40
2019-05-21T11:33:03.395Z,28.31
2019-05-21T11:35:29.744Z,26.52
2019-05-21T11:37:56.177Z,28.39
2019-05-21T11:40:23.483Z,28.16
2019-05-21T11:42:53.002Z,27.07
2019-05-21T11:45:31.856Z,28.77
2019-05-21T11:47:46.939Z,28.64
2019-05-21T11:50:16.956Z,28.62
2019-05-21T11:53:07.993Z,25.95
2019-05-21T11:55:34.134Z,24.33
2019-05-21T11:58:00.578Z,21.68
2019-05-21T12:00:28.879Z,19.50
2019-05-21T12:02:55.272Z,19.04
2019-05-21T12:05:21.934Z,18.79
2019-05-21T12:07:48.375Z,17.20
2019-05-21T12:10:15.653Z,14.98
2019-05-21T12:12:41.975Z,13.77
2019-05-21T12:15:09.132Z,12.73
2019-05-21T12:17:36.200Z,12.45
2019-05-21T12:20:07.217Z,12.37
2019-05-21T12:22:33.726Z,13.46
2019-05-21T12:25:00.514Z,13.39
2019-05-21T12:27:26.957Z,12.99
2019-05-21T12:29:53.466Z,11.57
2019-05-21T12:32:20.955Z,11.79
2019-05-21T12:34:47.820Z,12.48
2019-05-21T12:37:14.177Z,15.08
2019-05-21T12:39:40.578Z,12.33
2019-05-21T12:42:07.045Z,12.10
2019-05-21T12:44:33.388Z,12.11
2019-05-21T12:47:00.201Z,14.23
2019-05-21T12:49:26.537Z,14.85
2019-05-21T12:51:52.863Z,13.26
2019-05-21T12:54:19.214Z,13.52
2019-05-21T12:56:45.904Z,14.46
2019-05-21T12:59:13.078Z,16.28
2019-05-21T13:01:47.423Z,18.59
2019-05-21T13:04:14.723Z,16.01
2019-05-21T13:06:41.054Z,15.53
2019-05-21T13:09:08.397Z,15.87
2019-05-21T13:11:34.938Z,17.28
2019-05-21T13:14:01.684Z,18.83
2019-05-21T13:16:28.020Z,19.68
2019-05-21T13:18:54.530Z,20.92
2019-05-21T13:21:21.024Z,21.36
2019-05-21T13:23:48.549Z,22.36
2019-05-21T13:26:15.317Z,23.00
2019-05-21T13:28:41.751Z,23.46
2019-05-21T13:31:08.091Z,25.22
2019-05-21T13:33:35.739Z,23.84
2019-05-21T13:36:02.816Z,24.90
2019-05-21T13:38:29.597Z,24.37
2019-05-21T13:40:57.004Z,25.65
2019-05-21T13:43:30.994Z,26.13
2019-05-21T13:45:57.371Z,25.68
2019-05-21T13:48:24.052Z,22.42
2019-05-21T13:50:50.729Z,20.17
2019-05-21T13:53:17.056Z,16.94
2019-05-21T13:55:43.404Z,14.72
2019-05-21T13:58:10.844Z,11.98
2019-05-21T14:00:42.282Z,11.54
2019-05-21T14:03:08.730Z,11.81
2019-05-21T14:05:35.768Z,12.70
2019-05-21T14:08:02.126Z,15.97
2019-05-21T14:10:28.861Z,16.89
2019-05-21T14:12:55.212Z,17.95
2019-05-21T14:15:21.802Z,17.44
2019-05-21T14:17:48.201Z,19.62
2019-05-21T14:20:14.770Z,20.32
2019-05-21T14:22:41.221Z,22.62
2019-05-21T14:25:07.978Z,23.62
2019-05-21T14:27:43.868Z,25.09
2019-05-21T14:30:06.750Z,26.57
2019-05-21T14:32:33.084Z,26.40
2019-05-21T14:35:01.620Z,26.21
2019-05-21T14:37:29.722Z,26.44
2019-05-21T14:39:56.101Z,26.87
2019-05-21T14:42:22.440Z,25.54
2019-05-21T14:44:48.845Z,25.39
2019-05-21T14:47:15.543Z,26.74
2019-05-21T14:49:42.005Z,26.43
2019-05-21T14:52:09.522Z,26.24
2019-05-21T14:54:35.845Z,24.02
2019-05-21T14:57:04.109Z,22.03
2019-05-21T14:59:30.543Z,21.27
2019-05-21T15:01:57.015Z,20.90
2019-05-21T15:04:24.407Z,21.59
2019-05-21T15:06:51.193Z,21.52
2019-05-21T15:09:23.925Z,22.54
2019-05-21T15:11:50.725Z,25.17
2019-05-21T15:14:17.588Z,26.78
2019-05-21T15:16:44.047Z,28.87
2019-05-21T15:19:10.460Z,29.36
2019-05-21T15:21:38.716Z,29.53
2019-05-21T15:24:05.899Z,26.83
2019-05-21T15:26:36.738Z,24.80
2019-05-21T15:29:04.595Z,21.42
2019-05-21T15:31:31.176Z,21.43
2019-05-21T15:33:58.091Z,22.03
2019-05-21T15:36:24.503Z,21.49
2019-05-21T15:38:51.377Z,20.68
2019-05-21T15:41:17.949Z,20.77
2019-05-21T15:43:44.353Z,21.98
2019-05-21T15:46:10.857Z,23.92
2019-05-21T15:48:37.327Z,23.25
2019-05-21T15:51:03.753Z,23.86
2019-05-21T15:53:30.265Z,27.54
2019-05-21T15:55:56.572Z,29.56
2019-05-21T15:58:26.730Z,26.81
2019-05-21T16:00:51.621Z,26.90
2019-05-21T16:03:23.845Z,28.33
2019-05-21T16:05:51.279Z,30.67
2019-05-21T16:08:20.407Z,32.03
2019-05-21T16:10:46.819Z,32.79
2019-05-21T16:13:13.183Z,32.88
2019-05-21T16:15:39.833Z,32.88
2019-05-21T16:18:06.244Z,34.26
2019-05-21T16:20:32.566Z,35.04
2019-05-21T16:22:59.211Z,35.41
2019-05-21T16:25:25.572Z,34.52
2019-05-21T16:27:55.039Z,34.36
2019-05-21T16:30:21.778Z,34.50
2019-05-21T16:32:48.583Z,35.59
2019-05-21T16:35:15.169Z,35.67
2019-05-21T16:37:41.583Z,35.05
2019-05-21T16:40:09.963Z,35.80
2019-05-21T16:42:36.500Z,35.92
2019-05-21T16:45:06.499Z,35.00
2019-05-21T16:47:46.213Z,35.34
2019-05-21T16:50:12.945Z,35.92
2019-05-21T16:52:39.421Z,35.97
2019-05-21T16:55:06.747Z,36.17
2019-05-21T16:57:33.581Z,34.60
2019-05-21T17:00:02.199Z,33.18
2019-05-21T17:02:31.625Z,32.50
2019-05-21T17:04:58.560Z,28.50
2019-05-21T17:07:24.953Z,25.96
2019-05-21T17:09:51.631Z,25.47
2019-05-21T17:12:18.506Z,25.68
2019-05-21T17:14:44.891Z,24.48
2019-05-21T17:17:11.543Z,23.20
2019-05-21T17:19:37.982Z,22.15
2019-05-21T17:22:04.663Z,22.02
2019-05-21T17:24:31.304Z,21.91
2019-05-21T17:26:58.039Z,21.71
2019-05-21T17:29:24.376Z,21.92
2019-05-21T17:31:50.777Z,23.00
2019-05-21T17:34:17.223Z,23.04
2019-05-21T17:36:44.818Z,23.13
2019-05-21T17:39:11.212Z,22.57
2019-05-21T17:41:37.798Z,22.79
2019-05-21T17:44:04.202Z,22.59
2019-05-21T17:46:30.972Z,22.76
2019-05-21T17:48:57.816Z,22.71
2019-05-21T17:51:24.634Z,22.03
2019-05-21T17:53:51.323Z,24.29
2019-05-21T17:56:17.658Z,23.92
2019-05-21T17:58:44.353Z,25.30
2019-05-21T18:01:12.744Z,28.00
2019-05-21T18:03:39.689Z,29.49
2019-05-21T18:06:06.616Z,30.26
2019-05-21T18:08:34.095Z,30.28
2019-05-21T18:11:01.033Z,32.06
2019-05-21T18:13:27.685Z,34.41
2019-05-21T18:15:54.620Z,36.71
2019-05-21T18:18:21.571Z,38.80
2019-05-21T18:20:48.137Z,39.84
2019-05-21T18:23:16.823Z,41.03
2019-05-21T18:25:43.537Z,41.54
2019-05-21T18:28:10.457Z,42.15
2019-05-21T18:30:38.980Z,42.67
2019-05-21T18:33:05.528Z,43.72
2019-05-21T18:35:31.886Z,43.42
2019-05-21T18:37:58.297Z,44.50
2019-05-21T18:40:24.829Z,44.59
2019-05-21T18:42:51.267Z,44.88
2019-05-21T18:45:17.981Z,45.66
2019-05-21T18:47:44.442Z,46.12
2019-05-21T18:50:12.089Z,46.39
2019-05-21T18:52:38.988Z,46.90
2019-05-21T18:55:06.606Z,47.12
2019-05-21T18:57:33.761Z,47.60
2019-05-21T19:00:04.314Z,48.62
2019-05-21T19:02:32.216Z,48.97
2019-05-21T19:04:58.619Z,50.13
2019-05-21T19:07:25.682Z,50.56
2019-05-21T19:09:52.030Z,50.89
2019-05-21T19:12:19.575Z,51.35
2019-05-21T19:14:46.054Z,51.31
2019-05-21T19:17:12.421Z,51.50
2019-05-21T19:19:38.825Z,52.28
2019-05-21T19:22:05.173Z,53.23
2019-05-21T19:24:31.671Z,53.03
2019-05-21T19:26:58.064Z,53.76
2019-05-21T19:29:24.419Z,53.96
2019-05-21T19:31:50.907Z,54.43
2019-05-21T19:34:17.242Z,55.00
2019-05-21T19:36:43.584Z,55.25
2019-05-21T19:39:09.931Z,55.40
2019-05-21T19:41:36.696Z,55.76
2019-05-21T19:44:03.245Z,56.02
2019-05-21T19:46:30.070Z,56.25
2019-05-21T19:48:56.521Z,57.88
2019-05-21T19:51:22.976Z,58.61
2019-05-21T19:53:49.782Z,60.39
2019-05-21T19:56:16.307Z,62.83
2019-05-21T19:58:43.563Z,65.09
2019-05-21T20:01:10.067Z,67.11
2019-05-21T20:03:36.999Z,69.36
2019-05-21T20:06:04.874Z,70.56
2019-05-21T20:08:31.776Z,71.95
2019-05-21T20:10:58.328Z,72.88
2019-05-21T20:13:32.602Z,73.09
2019-05-21T20:15:53.991Z,73.68
2019-05-21T20:18:22.814Z,73.77
2019-05-21T20:20:49.378Z,73.95
2019-05-21T20:23:18.998Z,74.65
2019-05-21T20:25:55.933Z,75.52
2019-05-21T20:28:14.572Z,74.46
2019-05-21T20:30:44.853Z,75.19
2019-05-21T20:33:12.267Z,75.95
2019-05-21T20:35:40.045Z,74.96
2019-05-21T20:38:06.976Z,74.21
2019-05-21T20:40:34.818Z,75.55
2019-05-21T20:43:01.841Z,75.00
2019-05-21T20:45:29.295Z,75.00
2019-05-21T20:47:56.346Z,74.88
2019-05-21T20:50:24.680Z,75.16
2019-05-21T20:52:51.249Z,75.24
2019-05-21T20:55:18.410Z,75.57
2019-05-21T20:57:44.866Z,75.44
2019-05-21T21:00:13.828Z,74.53
2019-05-21T21:02:44.095Z,74.92
2019-05-21T21:05:11.747Z,74.44
2019-05-21T21:07:38.937Z,74.82
2019-05-21T21:10:06.402Z,74.39
2019-05-21T21:12:33.891Z,74.02
2019-05-21T21:15:00.657Z,75.54
2019-05-21T21:17:27.096Z,76.25
2019-05-21T21:19:54.165Z,75.23
2019-05-21T21:22:20.993Z,74.36
2019-05-21T21:24:47.903Z,73.99
2019-05-21T21:27:14.592Z,75.09
2019-05-21T21:29:41.002Z,74.77
2019-05-21T21:32:07.449Z,75.20
2019-05-21T21:34:33.970Z,76.16
2019-05-21T21:37:01.380Z,75.93
2019-05-21T21:39:27.804Z,76.33
2019-05-21T21:41:54.236Z,76.79
2019-05-21T21:44:33.619Z,75.99
2019-05-21T21:46:50.217Z,76.17
2019-05-21T21:49:16.899Z,76.11
2019-05-21T21:51:43.270Z,76.87
2019-05-21T21:54:10.836Z,76.46
2019-05-21T21:56:37.166Z,76.18
2019-05-21T21:59:03.678Z,75.58
2019-05-21T22:01:42.531Z,76.29
2019-05-21T22:04:13.132Z,75.72
2019-05-21T22:06:41.152Z,76.19
2019-05-21T22:09:10.420Z,76.82
2019-05-21T22:11:37.669Z,76.37
2019-05-21T22:14:04.850Z,75.76
2019-05-21T22:16:32.403Z,76.57
2019-05-21T22:18:58.749Z,76.92
2019-05-21T22:21:26.057Z,76.71
2019-05-21T22:23:52.404Z,76.97
2019-05-21T22:26:19.188Z,76.62
2019-05-21T22:28:45.528Z,76.64
2019-05-21T22:31:12.150Z,77.18
2019-05-21T22:33:38.555Z,76.59
2019-05-21T22:36:04.937Z,76.51
2019-05-21T22:38:32.399Z,76.88
2019-05-21T22:40:59.020Z,76.59
2019-05-21T22:43:25.639Z,76.37
2019-05-21T22:45:51.975Z,74.97
2019-05-21T22:48:18.294Z,76.32
2019-05-21T22:50:44.704Z,76.64
2019-05-21T22:53:11.008Z,77.58
2019-05-21T22:55:37.603Z,77.80
2019-05-21T22:58:04.763Z,77.56
2019-05-21T23:00:32.254Z,78.13
2019-05-21T23:02:58.618Z,77.46
2019-05-21T23:05:25.051Z,77.85
2019-05-21T23:07:51.483Z,77.02
2019-05-21T23:10:19.467Z,76.52
2019-05-21T23:12:45.991Z,77.00
2019-05-21T23:15:24.620Z,77.10
2019-05-21T23:17:44.351Z,76.97
2019-05-21T23:20:16.422Z,77.06
2019-05-21T23:22:46.578Z,77.72
2019-05-21T23:25:13.538Z,77.39
2019-05-21T23:27:40.841Z,78.42
2019-05-21T23:30:10.607Z,78.93
2019-05-21T23:32:38.263Z,78.62
2019-05-21T23:35:07.084Z,78.84
2019-05-21T23:37:34.724Z,78.63
2019-05-21T23:40:01.492Z,78.09
2019-05-21T23:42:29.898Z,78.60
2019-05-21T23:44:56.487Z,78.16
2019-05-21T23:47:23.318Z,78.01
2019-05-21T23:49:49.977Z,78.46
2019-05-21T23:52:16.861Z,78.29
2019-05-21T23:54:43.177Z,78.30
2019-05-21T23:57:12.614Z,78.19
2019-05-21T23:59:39.835Z,77.80
